Time;durP1;ratioP1;P1;durP2;ratioP2;P2;SDS_P1;SDS_P2;PMS_P1;PMS_P2;Temp;Humidity;BMP_temperature;BMP_pressure;BME280_temperature;BME280_humidity;BME280_pressure;Samples;Min_cycle;Max_cycle;Signal;HPM_P1;HPM_P2
2022/01/23 00:00:55;;;;;;;5.78;5.18;;;0.10;93.60;;;;;;5033008;28;20033;-80
2022/01/23 00:03:23;;;;;;;6.88;5.82;;;0.00;93.00;;;;;;5033118;28;20496;-79
2022/01/23 00:05:52;;;;;;;4.75;4.35;;;0.00;93.30;;;;;;5050466;28;20041;-78
2022/01/23 00:08:21;;;;;;;7.82;5.22;;;0.10;91.40;;;;;;5050760;28;20543;-77
2022/01/23 00:10:51;;;;;;;6.20;5.60;;;-0.10;91.90;;;;;;5050712;28;20068;-76
2022/01/23 00:18:35;;;;;;;7.13;5.05;;;-0.30;92.30;;;;;;5032832;28;20045;-78
2022/01/23 00:21:03;;;;;;;6.18;5.40;;;-0.40;92.20;;;;;;5052662;28;20040;-78
2022/01/23 00:31:32;;;;;;;5.90;4.75;;;-0.30;91.60;;;;;;5074311;28;20045;-80
2022/01/23 00:34:00;;;;;;;5.65;5.05;;;-0.40;91.50;;;;;;5056509;28;20037;-78
2022/01/23 00:36:28;;;;;;;6.38;5.38;;;-0.30;91.60;;;;;;5056256;28;20052;-80
2022/01/23 00:38:56;;;;;;;7.22;5.55;;;-0.30;91.70;;;;;;5074170;28;20174;-78
2022/01/23 00:41:25;;;;;;;8.38;5.43;;;-0.10;91.20;;;;;;5073950;28;20048;-82
2022/01/23 00:43:54;;;;;;;6.68;5.75;;;0.00;90.50;;;;;;5073996;28;20406;-81
2022/01/23 00:46:29;;;;;;;6.47;5.45;;;-0.10;89.70;;;;;;5073959;28;20466;-86
2022/01/23 00:51:26;;;;;;;7.35;5.57;;;-0.20;90.10;;;;;;5054014;28;20454;-82
2022/01/23 00:53:56;;;;;;;6.25;5.65;;;-0.30;90.70;;;;;;5019761;28;20146;-80
2022/01/23 00:56:24;;;;;;;10.30;5.50;;;-0.20;90.50;;;;;;5036109;28;20053;-83
2022/01/23 00:58:52;;;;;;;7.55;5.30;;;0.10;90.10;;;;;;5019784;28;20044;-81
2022/01/23 01:01:19;;;;;;;7.68;5.68;;;-0.10;90.10;;;;;;5036364;28;20044;-82
2022/01/23 01:03:48;;;;;;;4.97;4.47;;;0.00;89.30;;;;;;5035721;28;20072;-83
2022/01/23 01:06:16;;;;;;;7.53;5.53;;;-0.10;87.80;;;;;;5036077;28;20049;-83
2022/01/23 01:08:47;;;;;;;5.82;5.20;;;-0.30;89.10;;;;;;5019046;28;20412;-80
2022/01/23 01:11:52;;;;;;;6.65;4.82;;;-0.10;89.40;;;;;;5053600;28;20040;-80
2022/01/23 01:35:28;;;;;;;7.72;5.13;;;-0.30;87.70;;;;;;5035586;28;20037;-80
2022/01/23 01:37:56;;;;;;;5.60;4.78;;;-0.30;87.30;;;;;;5034954;28;20136;-79
2022/01/23 01:40:26;;;;;;;8.85;5.57;;;-0.40;87.00;;;;;;5052845;28;20047;-88
2022/01/23 01:42:54;;;;;;;5.63;4.90;;;-0.60;87.30;;;;;;5035297;28;20392;-81
2022/01/23 01:45:24;;;;;;;5.80;5.20;;;-0.50;87.10;;;;;;5052961;28;20400;-79
2022/01/23 01:47:54;;;;;;;6.82;5.00;;;-0.50;88.60;;;;;;5035380;28;20660;-79
2022/01/23 01:50:22;;;;;;;5.32;4.82;;;-0.50;87.70;;;;;;5052598;28;20091;-78
2022/01/23 01:52:49;;;;;;;5.82;4.93;;;-0.50;87.40;;;;;;5034754;28;20056;-83
2022/01/23 01:55:25;;;;;;;5.85;4.65;;;-0.40;87.40;;;;;;5018995;28;20098;-83
2022/01/23 01:58:00;;;;;;;6.38;5.07;;;-0.50;87.40;;;;;;5052731;28;20049;-81
2022/01/23 02:00:52;;;;;;;6.07;4.80;;;-0.50;87.30;;;;;;5052646;28;20041;-82
2022/01/23 02:08:51;;;;;;;6.45;4.72;;;-0.60;87.30;;;;;;5051972;28;20049;-80
2022/01/23 02:11:24;;;;;;;6.43;5.47;;;-0.40;88.00;;;;;;5052507;28;20037;-79
2022/01/23 02:14:15;;;;;;;5.43;4.93;;;-0.50;86.80;;;;;;5051888;28;20037;-82
2022/01/23 02:25:28;;;;;;;5.80;5.28;;;-0.20;85.90;;;;;;5052199;28;20506;-85
2022/01/23 02:55:40;;;;;;;6.65;5.30;;;0.00;83.60;;;;;;5051822;28;20041;-80
2022/01/23 02:58:11;;;;;;;6.40;4.88;;;0.10;84.80;;;;;;5051454;28;20045;-81
2022/01/23 03:03:44;;;;;;;5.68;4.88;;;0.00;85.50;;;;;;5001914;28;19920;-83
2022/01/23 03:25:09;;;;;;;8.70;5.93;;;-0.30;88.30;;;;;;5034022;28;20049;-83
2022/01/23 03:30:29;;;;;;;7.78;5.63;;;-0.30;88.30;;;;;;5054832;28;20041;-80
2022/01/23 03:32:57;;;;;;;6.50;5.15;;;-0.30;89.10;;;;;;5035108;28;20068;-82
2022/01/23 03:35:24;;;;;;;7.97;5.20;;;-0.30;89.80;;;;;;5034423;28;20059;-80
2022/01/23 03:37:52;;;;;;;7.50;5.80;;;-0.40;90.10;;;;;;5051814;28;20044;-86
2022/01/23 03:40:20;;;;;;;7.47;5.70;;;-0.30;90.50;;;;;;5051756;28;20049;-85
2022/01/23 03:42:55;;;;;;;6.50;5.28;;;-0.20;90.50;;;;;;5033870;28;20045;-82
2022/01/23 03:50:41;;;;;;;6.55;5.15;;;-0.20;91.30;;;;;;5033719;28;20417;-82
2022/01/23 03:53:09;;;;;;;7.53;5.55;;;-0.10;91.70;;;;;;5033582;28;20904;-84
2022/01/23 03:55:37;;;;;;;7.97;5.78;;;-0.10;91.90;;;;;;5035792;28;20049;-83
2022/01/23 03:58:05;;;;;;;6.70;5.53;;;-0.20;92.20;;;;;;5021494;28;20052;-84
2022/01/23 04:00:32;;;;;;;7.88;5.97;;;0.10;92.60;;;;;;5021679;28;20060;-82
2022/01/23 04:03:00;;;;;;;7.85;5.90;;;0.10;92.50;;;;;;5021351;28;20049;-79
2022/01/23 04:05:28;;;;;;;6.35;5.70;;;0.00;92.50;;;;;;5055122;28;20072;-86
2022/01/23 04:07:55;;;;;;;7.07;5.40;;;0.10;92.60;;;;;;5038144;28;20048;-86
2022/01/23 04:10:26;;;;;;;7.65;6.30;;;0.10;92.50;;;;;;5037753;28;20059;-84
2022/01/23 04:12:58;;;;;;;6.97;6.28;;;0.10;93.00;;;;;;5037511;28;20037;-84
2022/01/23 04:16:39;;;;;;;7.25;5.93;;;0.10;93.20;;;;;;5037169;28;20053;-85
2022/01/23 04:21:19;;;;;;;5.93;5.05;;;0.20;93.60;;;;;;5037536;28;20056;-84
2022/01/23 04:32:15;;;;;;;7.68;5.75;;;0.10;94.70;;;;;;5055057;28;20128;-79
2022/01/23 05:04:23;;;;;;;7.05;5.65;;;0.20;96.00;;;;;;5053721;28;20403;-82
2022/01/23 05:07:09;;;;;;;9.48;6.07;;;0.30;95.60;;;;;;5053403;28;20497;-81
2022/01/23 05:09:37;;;;;;;8.73;6.65;;;0.20;95.80;;;;;;5036672;28;20048;-80
2022/01/23 05:12:07;;;;;;;8.68;5.63;;;0.10;96.60;;;;;;5036222;28;20047;-83
2022/01/23 05:14:41;;;;;;;12.32;6.60;;;0.10;96.40;;;;;;5053839;28;20053;-82
2022/01/23 05:17:11;;;;;;;9.63;6.78;;;0.10;96.60;;;;;;5054246;28;20033;-81
2022/01/23 05:19:40;;;;;;;9.82;6.55;;;0.10;97.10;;;;;;5053711;28;20036;-85
2022/01/23 05:22:32;;;;;;;9.88;6.20;;;0.20;97.00;;;;;;5035518;28;20041;-82
2022/01/23 05:25:17;;;;;;;7.55;6.30;;;0.20;96.40;;;;;;5035981;28;20059;-81
2022/01/23 05:27:45;;;;;;;10.70;6.30;;;0.10;96.90;;;;;;5037394;28;20439;-82
2022/01/23 05:30:12;;;;;;;9.02;6.55;;;0.10;97.30;;;;;;5035995;28;20056;-83
2022/01/23 05:32:41;;;;;;;8.32;6.20;;;0.10;96.40;;;;;;5019223;28;20044;-80
2022/01/23 05:35:12;;;;;;;7.35;6.05;;;0.00;95.90;;;;;;5036580;28;20045;-84
2022/01/23 05:37:40;;;;;;;8.77;6.88;;;0.00;96.10;;;;;;5020266;28;20041;-82
2022/01/23 05:40:12;;;;;;;;;;;0.10;96.30;;;;;;5020600;28;20045;-81
2022/01/23 05:42:41;;;;;;;13.23;6.60;;;0.00;96.40;;;;;;5020922;28;20296;-82
2022/01/23 05:45:10;;;;;;;7.25;6.03;;;0.10;95.70;;;;;;5039144;28;20083;-81
2022/01/23 05:47:37;;;;;;;10.48;6.43;;;0.20;95.60;;;;;;5055385;28;20507;-78
2022/01/23 05:50:05;;;;;;;8.82;6.32;;;0.10;95.20;;;;;;5053693;28;20070;-83
2022/01/23 05:52:34;;;;;;;9.70;6.03;;;0.10;95.40;;;;;;5036724;28;20454;-80
2022/01/23 05:55:02;;;;;;;6.97;5.88;;;0.10;94.90;;;;;;5053394;28;20407;-83
2022/01/23 05:57:30;;;;;;;8.52;6.22;;;0.20;94.60;;;;;;5054078;28;20041;-83
2022/01/23 05:59:57;;;;;;;13.23;6.10;;;0.10;94.50;;;;;;5053459;28;20041;-82
2022/01/23 06:02:24;;;;;;;9.77;6.10;;;0.10;95.10;;;;;;4999622;28;20056;-85
2022/01/23 06:04:52;;;;;;;11.65;6.03;;;0.10;94.20;;;;;;5015666;28;20049;-82
2022/01/23 06:07:19;;;;;;;12.20;5.88;;;0.20;93.90;;;;;;5015548;28;20038;-85
2022/01/23 06:09:46;;;;;;;8.35;5.70;;;0.10;93.50;;;;;;5033398;28;20044;-85
2022/01/23 06:12:13;;;;;;;8.75;5.95;;;-0.10;93.40;;;;;;5015914;28;20042;-86
2022/01/23 06:14:41;;;;;;;9.85;5.57;;;0.10;93.00;;;;;;5015071;28;20049;-81
2022/01/23 06:17:08;;;;;;;6.18;5.50;;;0.00;92.40;;;;;;5032723;28;20092;-83
2022/01/23 06:19:37;;;;;;;8.80;5.68;;;-0.10;92.90;;;;;;5033103;28;20400;-80
2022/01/23 06:22:04;;;;;;;5.38;4.78;;;-0.10;92.80;;;;;;5014672;28;20080;-82
2022/01/23 06:24:32;;;;;;;10.77;6.03;;;-0.10;93.30;;;;;;4998859;28;20413;-82
2022/01/23 06:27:01;;;;;;;9.60;5.72;;;-0.20;93.10;;;;;;4998667;28;20057;-81
2022/01/23 06:29:30;;;;;;;8.15;5.50;;;-0.10;93.10;;;;;;5031831;28;20051;-82
2022/01/23 06:32:00;;;;;;;9.23;5.75;;;-0.10;93.50;;;;;;5014764;28;20042;-82
2022/01/23 06:34:30;;;;;;;7.13;5.53;;;0.00;93.20;;;;;;4998551;28;20050;-81
2022/01/23 06:36:58;;;;;;;9.45;5.60;;;-0.10;92.90;;;;;;5032236;28;20044;-85
2022/01/23 06:39:26;;;;;;;7.18;5.43;;;-0.10;92.70;;;;;;5031897;28;20520;-82
2022/01/23 06:41:54;;;;;;;9.82;5.55;;;-0.10;92.80;;;;;;5014192;28;20489;-83
2022/01/23 06:44:26;;;;;;;7.82;6.07;;;-0.10;93.10;;;;;;4998216;28;20048;-81
2022/01/23 06:46:53;;;;;;;7.30;5.85;;;0.00;92.70;;;;;;5014540;28;20046;-80
2022/01/23 06:49:22;;;;;;;7.55;5.82;;;0.00;92.40;;;;;;5014299;28;20504;-80
2022/01/23 06:51:51;;;;;;;6.85;6.05;;;0.00;92.60;;;;;;5032005;28;20445;-81
2022/01/23 06:54:19;;;;;;;7.57;5.38;;;0.00;92.20;;;;;;5014699;28;20065;-81
2022/01/23 06:56:46;;;;;;;6.43;5.47;;;0.00;92.40;;;;;;4998437;28;20047;-81
2022/01/23 06:59:14;;;;;;;9.55;6.00;;;0.00;91.80;;;;;;5014598;28;20042;-80
2022/01/23 07:01:41;;;;;;;7.10;5.50;;;0.00;92.00;;;;;;5044240;28;20045;-79
2022/01/23 07:04:09;;;;;;;7.35;5.55;;;0.00;91.90;;;;;;5051664;28;20045;-82
2022/01/23 07:06:36;;;;;;;7.88;5.70;;;0.00;91.70;;;;;;5017836;28;20045;-80
2022/01/23 07:09:08;;;;;;;10.23;5.57;;;0.00;92.10;;;;;;5051234;28;20045;-81
2022/01/23 07:11:35;;;;;;;8.10;5.70;;;0.00;91.50;;;;;;5051524;28;20428;-81
2022/01/23 07:14:03;;;;;;;7.95;6.15;;;0.10;91.30;;;;;;5051067;28;20119;-80
2022/01/23 07:16:33;;;;;;;;;;;0.20;91.20;;;;;;5052019;28;20500;-81
2022/01/23 07:19:01;;;;;;;8.38;5.60;;;0.30;90.90;;;;;;5051491;28;19934;-84
2022/01/23 07:21:28;;;;;;;6.90;5.85;;;0.40;90.50;;;;;;5017482;28;20049;-81
2022/01/23 07:23:56;;;;;;;6.85;5.15;;;0.50;90.50;;;;;;5033253;28;20052;-81
2022/01/23 07:26:25;;;;;;;13.98;6.07;;;0.50;89.00;;;;;;5033806;28;20044;-82
2022/01/23 07:28:56;;;;;;;7.43;5.18;;;0.50;88.40;;;;;;5034143;28;20492;-81
2022/01/23 07:34:03;;;;;;;12.95;4.97;;;0.60;87.20;;;;;;5034178;28;20056;-85
2022/01/23 07:36:31;;;;;;;6.47;5.00;;;0.80;86.30;;;;;;5035311;28;20056;-83
2022/01/23 07:38:59;;;;;;;8.57;5.15;;;0.70;85.10;;;;;;5025306;28;20134;-84
2022/01/23 07:41:28;;;;;;;9.15;5.55;;;0.70;85.30;;;;;;5043045;28;20381;-85
2022/01/23 07:43:58;;;;;;;9.32;5.47;;;0.70;85.30;;;;;;5026482;28;20058;-83
2022/01/23 07:46:26;;;;;;;6.95;5.70;;;0.90;83.80;;;;;;5058894;28;20038;-82
2022/01/23 07:48:54;;;;;;;6.68;5.00;;;0.90;83.40;;;;;;5042531;28;20074;-81
2022/01/23 07:51:22;;;;;;;5.50;4.72;;;1.20;83.30;;;;;;5062023;28;20024;-82
2022/01/23 07:53:51;;;;;;;7.47;5.45;;;1.00;82.30;;;;;;5042776;28;20065;-81
2022/01/23 07:56:19;;;;;;;8.52;6.20;;;1.20;83.20;;;;;;5042161;28;20041;-82
2022/01/23 07:58:46;;;;;;;8.73;5.95;;;1.60;82.80;;;;;;5061104;28;20040;-80
2022/01/23 08:01:14;;;;;;;9.27;5.07;;;1.50;80.00;;;;;;5060013;28;20047;-83
2022/01/23 08:03:41;;;;;;;9.93;5.47;;;1.20;80.90;;;;;;5027399;28;20055;-85
2022/01/23 08:06:11;;;;;;;8.25;5.65;;;1.30;81.60;;;;;;5042927;28;20041;-78
2022/01/23 08:08:39;;;;;;;11.82;6.05;;;1.40;80.30;;;;;;5059151;28;20049;-80
2022/01/23 08:11:08;;;;;;;9.55;5.80;;;1.60;79.80;;;;;;5060926;28;20041;-79
2022/01/23 08:13:35;;;;;;;12.35;6.05;;;1.60;78.90;;;;;;5060856;28;20396;-80
2022/01/23 08:16:04;;;;;;;12.45;6.60;;;1.60;77.90;;;;;;5038931;28;20719;-80
2022/01/23 08:18:31;;;;;;;12.32;6.57;;;1.60;78.80;;;;;;5042686;28;20028;-78
2022/01/23 08:20:59;;;;;;;15.35;5.60;;;1.60;77.70;;;;;;5061231;28;20045;-79
2022/01/23 08:23:27;;;;;;;8.77;5.60;;;1.40;77.20;;;;;;5041738;28;20037;-79
2022/01/23 08:25:54;;;;;;;8.68;5.65;;;1.60;76.50;;;;;;5042294;28;20116;-80
2022/01/23 08:28:21;;;;;;;7.35;5.25;;;1.70;76.00;;;;;;5043347;28;20044;-78
2022/01/23 08:30:49;;;;;;;9.18;5.78;;;1.80;75.80;;;;;;5042071;28;20060;-79
2022/01/23 08:33:16;;;;;;;8.60;5.65;;;1.80;75.90;;;;;;5041725;28;20125;-78
2022/01/23 08:35:45;;;;;;;9.88;5.85;;;1.90;75.30;;;;;;5056713;28;20045;-77
2022/01/23 08:38:14;;;;;;;9.73;5.68;;;1.90;75.10;;;;;;5059565;28;20098;-78
2022/01/23 08:43:14;;;;;;;11.35;5.65;;;1.90;74.20;;;;;;5045564;28;20049;-84
2022/01/23 08:45:43;;;;;;;7.20;5.20;;;2.10;73.20;;;;;;5045313;28;20045;-86
2022/01/23 08:48:12;;;;;;;8.35;5.38;;;2.00;72.30;;;;;;5045882;28;20106;-85
2022/01/23 08:50:40;;;;;;;6.55;5.70;;;1.90;73.10;;;;;;5030046;28;20369;-84
2022/01/23 08:53:07;;;;;;;16.77;5.65;;;2.00;72.90;;;;;;5027519;28;20500;-85
2022/01/23 08:55:39;;;;;;;11.60;5.03;;;2.00;72.60;;;;;;5029388;28;20044;-86
2022/01/23 08:58:40;;;;;;;8.05;5.35;;;2.10;72.20;;;;;;5063745;28;20090;-83
2022/01/23 09:01:11;;;;;;;7.75;5.25;;;2.00;72.50;;;;;;5029848;28;20049;-84
2022/01/23 09:03:39;;;;;;;8.25;5.35;;;2.10;71.50;;;;;;5044659;28;20049;-83
2022/01/23 09:06:08;;;;;;;10.05;5.45;;;2.10;71.30;;;;;;5045425;28;20464;-84
2022/01/23 09:08:40;;;;;;;9.30;5.78;;;2.30;71.80;;;;;;5037234;28;20044;-84
2022/01/23 09:16:43;;;;;;;18.50;10.00;;;2.40;71.30;;;;;;5024651;28;20517;-80
2022/01/23 09:19:12;;;;;;;18.85;11.70;;;2.30;71.20;;;;;;5015440;28;20037;-82
2022/01/23 09:21:41;;;;;;;11.40;6.20;;;2.50;71.80;;;;;;5033357;28;20117;-80
2022/01/23 09:24:08;;;;;;;7.35;5.57;;;2.90;70.40;;;;;;5015389;28;20290;-84
2022/01/23 09:26:37;;;;;;;7.68;5.78;;;2.90;67.70;;;;;;5049619;28;20064;-80
2022/01/23 09:29:16;;;;;;;10.13;5.40;;;3.20;67.70;;;;;;5035140;28;20140;-80
2022/01/23 09:31:50;;;;;;;7.85;5.10;;;3.60;66.90;;;;;;5035316;28;20052;-83
2022/01/23 09:34:23;;;;;;;7.40;4.88;;;4.00;65.80;;;;;;5052690;28;20041;-82
2022/01/23 09:36:51;;;;;;;6.47;5.50;;;4.10;63.00;;;;;;5028613;28;20519;-78
2022/01/23 09:39:21;;;;;;;;;;;4.40;64.40;;;;;;5017594;28;20124;-80
2022/01/23 09:41:59;;;;;;;8.35;5.30;;;4.80;64.10;;;;;;5033506;28;19948;-81
2022/01/23 09:44:31;;;;;;;6.45;4.60;;;4.70;62.50;;;;;;5015223;28;20049;-76
2022/01/23 09:46:58;;;;;;;81.53;39.28;;;4.50;61.20;;;;;;5063745;28;20059;-79
2022/01/23 09:49:29;;;;;;;52.47;29.77;;;4.80;61.80;;;;;;5054749;28;20408;-81
2022/01/23 09:52:00;;;;;;;49.25;26.05;;;5.10;62.10;;;;;;5072567;28;20105;-80
2022/01/23 09:54:30;;;;;;;85.97;43.95;;;5.20;64.00;;;;;;5071938;28;20115;-85
2022/01/23 09:57:01;;;;;;;12.20;8.02;;;5.40;61.30;;;;;;5038744;28;20128;-79
2022/01/23 09:59:29;;;;;;;;;;;5.20;59.20;;;;;;5073132;28;20037;-80
2022/01/23 10:01:57;;;;;;;10.75;5.03;;;5.20;60.00;;;;;;5032538;28;19950;-80
2022/01/23 10:04:27;;;;;;;5.85;4.45;;;5.40;59.00;;;;;;5032373;28;20503;-80
2022/01/23 10:06:54;;;;;;;7.40;4.95;;;5.40;58.10;;;;;;5032951;28;20056;-81
2022/01/23 10:09:26;;;;;;;6.72;4.25;;;5.60;58.80;;;;;;5015204;28;20041;-76
2022/01/23 10:11:54;;;;;;;6.70;4.85;;;5.30;57.60;;;;;;5015216;28;20497;-79
2022/01/23 10:14:23;;;;;;;6.78;4.40;;;5.40;57.70;;;;;;5031773;28;20049;-78
2022/01/23 10:16:50;;;;;;;6.93;4.70;;;5.30;55.90;;;;;;5032262;28;20500;-83
2022/01/23 10:19:18;;;;;;;5.25;4.30;;;5.30;56.00;;;;;;5015117;28;20401;-77
2022/01/23 10:21:47;;;;;;;8.77;4.20;;;5.10;56.10;;;;;;5032373;28;20404;-82
2022/01/23 10:24:24;;;;;;;6.78;4.55;;;5.00;56.10;;;;;;5016057;28;20065;-81
2022/01/23 10:26:56;;;;;;;6.13;4.18;;;4.80;56.70;;;;;;5014806;28;20575;-80
2022/01/23 10:29:28;;;;;;;8.15;4.95;;;4.70;56.60;;;;;;5015921;28;20059;-82
2022/01/23 10:32:07;;;;;;;7.32;5.00;;;4.80;56.80;;;;;;5032692;28;20375;-82
2022/01/23 10:34:56;;;;;;;6.60;4.60;;;5.10;57.00;;;;;;5032293;28;20052;-82
2022/01/23 10:37:35;;;;;;;9.10;4.55;;;4.80;55.10;;;;;;5032324;28;20045;-82
2022/01/23 10:40:23;;;;;;;7.18;4.38;;;5.10;54.60;;;;;;4998672;28;20140;-83
2022/01/23 10:51:14;;;;;;;8.13;5.75;;;6.20;52.80;;;;;;5014266;28;20063;-76
2022/01/23 10:54:06;;;;;;;41.10;22.00;;;6.10;51.80;;;;;;5031286;28;20073;-81
2022/01/23 10:56:53;;;;;;;11.20;7.95;;;7.10;63.30;;;;;;5014358;28;20045;-74
2022/01/23 10:59:21;;;;;;;10.95;5.65;;;6.90;49.70;;;;;;5014568;28;20037;-79
2022/01/23 11:02:12;;;;;;;6.22;4.50;;;6.20;50.40;;;;;;5030927;28;20041;-76
2022/01/23 11:05:12;;;;;;;10.40;5.75;;;6.40;50.60;;;;;;5050653;28;20049;-82
2022/01/23 11:07:44;;;;;;;7.90;4.50;;;7.00;50.20;;;;;;5033859;28;20388;-74
2022/01/23 11:10:17;;;;;;;6.78;4.10;;;7.00;49.90;;;;;;5051796;28;20401;-80
2022/01/23 11:18:32;;;;;;;;;;;7.40;47.50;;;;;;4970423;28;20047;-78
2022/01/23 11:21:13;;;;;;;5.93;3.38;;;8.40;47.30;;;;;;5036183;28;19936;-76
2022/01/23 11:23:41;;;;;;;6.10;2.90;;;9.20;45.50;;;;;;5051555;28;20383;-81
2022/01/23 11:26:12;;;;;;;4.93;2.72;;;9.70;44.60;;;;;;5033802;28;20055;-81
2022/01/23 11:28:46;;;;;;;6.22;3.13;;;9.60;44.50;;;;;;5051518;28;20044;-78
2022/01/23 11:31:18;;;;;;;10.80;5.15;;;10.10;43.90;;;;;;5051482;28;20041;-77
2022/01/23 11:33:51;;;;;;;6.80;3.20;;;8.60;44.70;;;;;;5033402;28;20432;-76
2022/01/23 11:36:20;;;;;;;6.10;3.42;;;7.40;47.00;;;;;;5033503;28;20040;-81
2022/01/23 11:38:53;;;;;;;5.05;3.10;;;8.60;46.90;;;;;;5051231;28;20119;-76
2022/01/23 11:55:30;;;;;;;6.30;4.75;;;5.30;52.50;;;;;;5051024;28;20037;-76
2022/01/23 11:57:58;;;;;;;7.72;5.15;;;5.10;53.40;;;;;;5033454;28;20396;-82
2022/01/23 12:00:31;;;;;;;6.93;5.15;;;4.90;53.50;;;;;;5033642;28;20087;-78
2022/01/23 12:03:10;;;;;;;7.63;5.05;;;5.40;53.80;;;;;;5050797;28;20041;-80
2022/01/23 12:05:39;;;;;;;9.63;5.25;;;6.00;52.50;;;;;;5051210;28;20067;-82
2022/01/23 12:08:16;;;;;;;6.95;5.03;;;6.60;51.70;;;;;;5032983;28;20107;-78
2022/01/23 12:11:16;;;;;;;6.22;5.05;;;7.20;50.80;;;;;;5033049;28;20041;-76
2022/01/23 12:17:38;;;;;;;6.32;4.78;;;7.40;50.10;;;;;;5052615;28;20093;-75
2022/01/23 12:20:07;;;;;;;5.82;4.53;;;6.80;49.70;;;;;;5039521;28;20068;-74
2022/01/23 12:22:36;;;;;;;6.85;5.05;;;5.60;51.10;;;;;;5031357;28;20055;-76
2022/01/23 12:25:14;;;;;;;19.58;13.05;;;5.30;52.50;;;;;;5016631;28;20041;-78
2022/01/23 12:27:42;;;;;;;26.13;14.93;;;5.30;53.30;;;;;;5016765;28;20061;-79
2022/01/23 12:30:15;;;;;;;135.32;72.97;;;5.50;53.70;;;;;;5016733;28;20037;-78
2022/01/23 12:33:07;;;;;;;162.98;77.35;;;5.60;54.20;;;;;;5014985;28;20559;-76
2022/01/23 12:35:40;;;;;;;11.30;10.10;;;5.10;54.00;;;;;;5051421;28;20526;-79
2022/01/23 12:38:10;;;;;;;7.50;6.10;;;4.70;53.10;;;;;;5020091;28;20051;-81
2022/01/23 12:40:43;;;;;;;7.38;5.10;;;4.30;53.00;;;;;;5060397;28;20484;-80
2022/01/23 12:43:24;;;;;;;7.65;5.45;;;4.30;52.80;;;;;;5015146;28;20387;-81
2022/01/23 12:45:55;;;;;;;6.95;5.38;;;4.10;53.10;;;;;;5030859;28;20086;-76
2022/01/23 12:48:25;;;;;;;;;;;3.50;52.50;;;;;;5034020;28;20095;-79
2022/01/23 12:50:58;;;;;;;8.70;5.85;;;3.80;53.30;;;;;;5016477;28;19924;-80
2022/01/23 12:53:58;;;;;;;9.13;5.25;;;3.70;51.90;;;;;;5015707;28;20037;-80
2022/01/23 12:56:41;;;;;;;7.50;5.40;;;3.70;51.10;;;;;;4993052;28;20510;-80
2022/01/23 12:59:12;;;;;;;13.00;5.32;;;3.50;50.20;;;;;;5032692;28;20068;-80
2022/01/23 13:01:44;;;;;;;8.38;5.60;;;3.40;51.50;;;;;;5046898;28;20063;-81
2022/01/23 13:04:13;;;;;;;7.70;5.22;;;3.30;51.70;;;;;;5054834;28;20503;-78
2022/01/23 13:06:56;;;;;;;8.80;5.15;;;3.30;52.10;;;;;;5054423;28;20445;-82
2022/01/23 13:12:14;;;;;;;8.38;5.63;;;3.60;51.80;;;;;;5037130;28;20127;-80
2022/01/23 13:17:52;;;;;;;8.20;4.93;;;4.00;50.60;;;;;;5017637;28;20132;-82
2022/01/23 13:32:17;;;;;;;7.38;5.25;;;5.00;49.00;;;;;;5044647;28;20607;-73
2022/01/23 13:34:49;;;;;;;6.13;4.95;;;5.80;48.50;;;;;;5008067;28;20120;-73
2022/01/23 13:37:23;;;;;;;5.70;4.40;;;6.20;47.20;;;;;;5037150;28;20043;-76
2022/01/23 13:40:03;;;;;;;5.57;4.10;;;6.60;46.40;;;;;;5052623;28;20119;-75
2022/01/23 13:51:43;;;;;;;6.70;4.07;;;7.30;45.10;;;;;;5043088;28;20051;-73
2022/01/23 13:57:38;;;;;;;11.35;8.32;;;7.40;46.50;;;;;;5012542;28;20046;-73
2022/01/23 14:00:02;;;;;;;20.17;14.82;;;7.80;46.10;;;;;;5052216;28;20055;-73
2022/01/23 14:02:36;;;;;;;19.80;13.52;;;8.00;46.10;;;;;;5027168;28;20371;-75
2022/01/23 14:05:11;;;;;;;90.28;51.40;;;8.50;46.40;;;;;;5021467;28;20390;-73
2022/01/23 14:07:41;;;;;;;7.40;4.88;;;8.50;46.90;;;;;;5043344;28;20045;-77
2022/01/23 14:10:31;;;;;;;5.78;3.72;;;8.20;45.50;;;;;;5033133;28;20116;-72
2022/01/23 14:13:19;;;;;;;5.82;3.53;;;8.40;45.20;;;;;;5006335;28;20041;-74
2022/01/23 14:15:49;;;;;;;5.30;3.25;;;8.50;44.70;;;;;;5029248;28;20056;-75
2022/01/23 14:18:29;;;;;;;5.80;3.58;;;8.10;44.40;;;;;;5061408;28;20410;-76
2022/01/23 14:21:09;;;;;;;5.35;3.35;;;7.20;45.90;;;;;;5059692;28;20041;-76
2022/01/23 14:23:36;;;;;;;7.03;3.70;;;7.10;46.70;;;;;;5049636;28;20076;-76
2022/01/23 14:26:08;;;;;;;7.30;4.22;;;6.90;46.70;;;;;;5043506;28;20378;-76
2022/01/23 14:28:44;;;;;;;5.20;3.42;;;7.30;47.00;;;;;;5018790;28;20572;-76
2022/01/23 14:31:19;;;;;;;5.75;3.45;;;7.00;47.20;;;;;;5032313;28;20076;-75
2022/01/23 14:33:51;;;;;;;5.55;3.30;;;7.40;47.10;;;;;;5041234;28;20041;-75
2022/01/23 14:36:34;;;;;;;5.88;3.72;;;7.00;46.80;;;;;;5069744;28;20048;-74
2022/01/23 14:39:04;;;;;;;7.82;4.32;;;6.60;49.60;;;;;;5036765;28;20052;-75
2022/01/23 14:41:38;;;;;;;7.15;4.40;;;5.60;49.70;;;;;;5045745;28;20052;-75
2022/01/23 14:44:20;;;;;;;7.35;5.35;;;5.30;50.80;;;;;;5011587;28;20049;-76
2022/01/23 14:46:50;;;;;;;7.65;5.93;;;4.90;53.20;;;;;;5012102;28;20091;-77
2022/01/23 14:49:24;;;;;;;8.35;5.85;;;4.30;54.20;;;;;;5009363;28;20053;-73
2022/01/23 14:51:53;;;;;;;8.95;6.10;;;3.90;55.40;;;;;;5048433;28;20052;-76
2022/01/23 14:54:23;;;;;;;8.00;6.32;;;4.00;55.70;;;;;;5047006;28;20124;-80
2022/01/23 14:56:51;;;;;;;6.57;5.57;;;4.00;56.10;;;;;;5049988;28;20114;-75
2022/01/23 14:59:18;;;;;;;14.93;5.72;;;4.00;56.00;;;;;;5032020;28;20053;-75
2022/01/23 15:01:47;;;;;;;7.82;5.80;;;3.90;56.40;;;;;;5031368;28;20200;-75
2022/01/23 15:04:20;;;;;;;7.15;5.43;;;3.60;56.60;;;;;;5039718;28;20049;-74
2022/01/23 15:06:52;;;;;;;8.98;5.32;;;3.60;56.40;;;;;;5036479;28;20161;-74
2022/01/23 15:09:21;;;;;;;6.18;5.40;;;3.50;56.80;;;;;;5008595;28;20049;-78
2022/01/23 15:11:51;;;;;;;6.78;5.43;;;3.40;57.10;;;;;;5019918;28;20169;-75
2022/01/23 15:14:18;;;;;;;7.57;5.68;;;3.50;57.60;;;;;;5006668;28;20061;-75
2022/01/23 15:16:48;;;;;;;7.95;5.90;;;3.60;58.30;;;;;;5039550;28;20588;-75
2022/01/23 15:19:16;;;;;;;9.15;5.82;;;3.60;57.70;;;;;;5044949;28;20041;-73
2022/01/23 15:21:44;;;;;;;7.28;5.78;;;3.40;57.60;;;;;;5045497;28;20501;-73
2022/01/23 15:24:12;;;;;;;6.68;5.93;;;3.10;59.20;;;;;;5039154;28;20045;-75
2022/01/23 15:26:40;;;;;;;19.52;11.63;;;3.00;60.20;;;;;;5023510;28;20333;-74
2022/01/23 15:29:08;;;;;;;26.27;15.07;;;3.10;61.20;;;;;;5024297;28;20538;-73
2022/01/23 15:31:37;;;;;;;15.43;10.02;;;3.20;61.10;;;;;;5040660;28;20562;-73
2022/01/23 15:34:07;;;;;;;7.82;6.68;;;3.20;61.50;;;;;;5039641;28;20121;-73
2022/01/23 15:36:36;;;;;;;7.43;6.13;;;3.20;61.90;;;;;;5030656;28;20049;-75
2022/01/23 15:39:05;;;;;;;9.50;6.32;;;3.00;61.50;;;;;;5031823;28;20143;-76
2022/01/23 15:41:34;;;;;;;10.93;6.18;;;3.10;62.00;;;;;;5030242;28;20051;-76
2022/01/23 15:44:01;;;;;;;7.53;6.30;;;3.20;61.80;;;;;;5016718;28;20071;-73
2022/01/23 15:46:34;;;;;;;10.05;6.85;;;2.80;63.50;;;;;;5049491;28;20073;-74
2022/01/23 15:49:02;;;;;;;9.40;6.60;;;2.70;63.80;;;;;;5031125;28;20037;-75
2022/01/23 15:51:30;;;;;;;12.00;7.38;;;2.90;64.60;;;;;;5017634;28;20045;-72
2022/01/23 15:53:59;;;;;;;9.35;6.50;;;2.90;64.20;;;;;;5036540;28;20451;-73
2022/01/23 15:56:26;;;;;;;8.23;6.35;;;2.80;64.60;;;;;;5053844;28;20037;-74
2022/01/23 15:58:54;;;;;;;7.70;6.63;;;2.80;65.40;;;;;;5035459;28;20067;-70
2022/01/23 16:01:21;;;;;;;7.72;6.20;;;2.80;67.10;;;;;;5052866;28;20477;-71
2022/01/23 16:03:49;;;;;;;8.02;5.82;;;2.40;69.20;;;;;;5053303;28;20048;-73
2022/01/23 16:06:17;;;;;;;9.60;5.70;;;2.30;70.80;;;;;;5036060;28;20056;-73
2022/01/23 16:08:50;;;;;;;6.70;5.55;;;2.40;71.80;;;;;;5054254;28;20044;-73
2022/01/23 16:11:17;;;;;;;6.38;5.50;;;2.50;72.10;;;;;;5051262;28;20124;-72
2022/01/23 16:13:45;;;;;;;6.63;5.97;;;2.40;72.60;;;;;;5052916;28;20492;-74
2022/01/23 16:16:14;;;;;;;7.70;6.38;;;2.00;73.20;;;;;;5036018;28;20488;-73
2022/01/23 16:18:45;;;;;;;7.80;6.40;;;2.10;73.80;;;;;;5054034;28;20496;-73
2022/01/23 16:21:13;;;;;;;6.95;5.65;;;2.20;74.10;;;;;;5054096;28;20125;-72
2022/01/23 16:23:41;;;;;;;7.10;6.22;;;2.30;74.10;;;;;;5050469;28;20040;-74
2022/01/23 16:26:12;;;;;;;7.25;6.28;;;2.30;74.70;;;;;;5035534;28;20489;-70
2022/01/23 16:28:41;;;;;;;6.47;5.88;;;2.40;75.40;;;;;;5053768;28;20110;-72
2022/01/23 16:31:10;;;;;;;9.93;6.90;;;2.30;75.50;;;;;;5044616;28;20522;-73
2022/01/23 16:33:38;;;;;;;8.35;6.15;;;2.20;75.90;;;;;;5028195;28;20048;-71
2022/01/23 16:36:07;;;;;;;10.32;6.47;;;2.20;76.40;;;;;;5053979;28;20094;-73
2022/01/23 16:38:36;;;;;;;12.13;7.68;;;2.30;77.50;;;;;;5056300;28;20041;-72
2022/01/23 16:41:04;;;;;;;10.02;7.88;;;2.30;88.90;;;;;;5058437;28;20063;-74
2022/01/23 16:43:32;;;;;;;14.40;7.43;;;2.40;91.00;;;;;;5060110;28;20400;-75
2022/01/23 16:46:01;;;;;;;8.38;6.68;;;2.50;90.90;;;;;;5042662;28;20176;-73
2022/01/23 16:48:29;;;;;;;8.98;6.30;;;2.60;85.90;;;;;;5039252;28;20028;-73
2022/01/23 16:50:59;;;;;;;11.02;7.88;;;1.90;83.70;;;;;;5050515;28;20051;-72
2022/01/23 16:53:27;;;;;;;13.80;7.93;;;1.50;85.90;;;;;;5052338;28;20069;-71
2022/01/23 16:55:57;;;;;;;10.35;8.05;;;1.70;88.70;;;;;;5052480;28;20488;-72
2022/01/23 16:58:32;;;;;;;10.43;8.10;;;2.10;86.70;;;;;;5032645;28;20492;-76